createdAt,value
2018-07-30T00:03:15.321Z,9.70
2018-07-30T00:07:19.552Z,9.70
2018-07-30T00:11:24.084Z,11.07
2018-07-30T00:15:28.361Z,11.57
2018-07-30T00:19:32.649Z,9.90
2018-07-30T00:23:37.036Z,8.73
2018-07-30T00:27:41.354Z,10.37
2018-07-30T00:31:45.606Z,9.33
2018-07-30T00:35:49.949Z,9.00
2018-07-30T00:39:54.570Z,9.97
2018-07-30T00:43:58.886Z,10.30
2018-07-30T00:48:03.325Z,10.00
2018-07-30T00:52:07.643Z,9.67
2018-07-30T00:56:11.901Z,10.60
2018-07-30T01:00:16.393Z,10.47
2018-07-30T01:04:20.632Z,10.20
2018-07-30T01:08:24.912Z,10.00
2018-07-30T01:12:29.160Z,9.27
2018-07-30T01:16:33.418Z,9.70
2018-07-30T01:20:38.169Z,9.10
2018-07-30T01:24:42.527Z,9.70
2018-07-30T01:28:46.755Z,8.50
2018-07-30T01:32:51.140Z,9.93
2018-07-30T01:36:55.503Z,10.73
2018-07-30T01:40:59.777Z,9.83
2018-07-30T01:45:04.148Z,9.40
2018-07-30T01:49:08.468Z,11.63
2018-07-30T01:53:12.670Z,8.90
2018-07-30T01:57:17.049Z,10.20
2018-07-30T02:01:21.275Z,9.93
2018-07-30T02:05:25.602Z,10.20
2018-07-30T02:09:29.926Z,9.27
2018-07-30T02:13:34.147Z,11.07
2018-07-30T02:17:38.452Z,12.00
2018-07-30T02:21:42.844Z,10.73
2018-07-30T02:25:47.083Z,9.83
2018-07-30T02:29:51.442Z,9.80
2018-07-30T02:33:55.993Z,10.57
2018-07-30T02:38:00.349Z,10.90
2018-07-30T02:42:04.943Z,11.13
2018-07-30T02:46:09.360Z,10.23
2018-07-30T02:50:13.636Z,10.43
2018-07-30T02:54:17.894Z,9.80
2018-07-30T02:58:22.160Z,10.40
2018-07-30T03:02:26.519Z,10.30
2018-07-30T03:06:30.735Z,9.93
2018-07-30T03:10:35.170Z,9.97
2018-07-30T03:14:39.484Z,10.40
2018-07-30T03:18:43.736Z,11.07
2018-07-30T03:22:48.091Z,11.23
2018-07-30T03:26:52.406Z,10.97
2018-07-30T03:30:56.777Z,11.57
2018-07-30T03:35:01.079Z,10.70
2018-07-30T03:39:06.809Z,11.10
2018-07-30T03:43:11.173Z,11.97
2018-07-30T03:47:15.433Z,12.30
2018-07-30T03:51:19.822Z,11.10
2018-07-30T03:55:24.015Z,11.13
2018-07-30T03:59:28.380Z,11.90
2018-07-30T04:03:32.708Z,11.90
2018-07-30T04:07:37.369Z,12.23
2018-07-30T04:11:41.632Z,12.00
2018-07-30T04:15:45.945Z,11.27
2018-07-30T04:19:50.197Z,11.03
2018-07-30T04:23:54.413Z,11.30
2018-07-30T04:27:58.724Z,11.63
2018-07-30T04:32:02.945Z,10.43
2018-07-30T04:36:07.306Z,10.00
2018-07-30T04:40:11.825Z,10.30
2018-07-30T04:44:16.052Z,9.97
2018-07-30T04:48:20.354Z,11.00
2018-07-30T04:52:24.606Z,10.70
2018-07-30T04:56:28.858Z,9.13
2018-07-30T05:00:33.246Z,11.33
2018-07-30T05:04:37.704Z,10.17
2018-07-30T05:08:41.888Z,9.93
2018-07-30T05:12:46.204Z,9.07
2018-07-30T05:16:50.379Z,10.37
2018-07-30T05:20:54.777Z,10.70
2018-07-30T05:24:58.990Z,10.50
2018-07-30T05:29:03.187Z,10.33
2018-07-30T05:33:07.479Z,10.60
2018-07-30T05:37:11.716Z,10.47
2018-07-30T05:41:21.808Z,12.10
2018-07-30T05:45:27.032Z,10.10
2018-07-30T05:49:31.240Z,9.80
2018-07-30T05:53:35.916Z,11.23
2018-07-30T05:57:40.106Z,10.73
2018-07-30T06:01:44.328Z,10.50
2018-07-30T06:05:48.514Z,10.37
2018-07-30T06:09:52.736Z,10.30
2018-07-30T06:13:56.994Z,9.70
2018-07-30T06:18:01.415Z,9.80
2018-07-30T06:22:05.689Z,9.20
2018-07-30T06:26:10.029Z,10.77
2018-07-30T06:30:14.389Z,9.97
2018-07-30T06:34:18.793Z,10.87
2018-07-30T06:38:23.088Z,10.77
2018-07-30T06:42:27.348Z,10.57
2018-07-30T06:46:31.604Z,10.07
2018-07-30T06:50:35.825Z,10.20
2018-07-30T06:54:40.075Z,9.90
2018-07-30T06:58:44.436Z,11.93
2018-07-30T07:02:48.789Z,10.57
2018-07-30T07:06:53.059Z,10.33
2018-07-30T07:10:57.303Z,11.00
2018-07-30T07:15:01.574Z,9.30
2018-07-30T07:19:05.865Z,10.47
2018-07-30T07:23:10.188Z,10.00
2018-07-30T07:27:14.377Z,9.50
2018-07-30T07:31:18.773Z,9.50
2018-07-30T07:35:23.002Z,8.40
2018-07-30T07:39:27.284Z,9.33
2018-07-30T07:43:31.486Z,8.57
2018-07-30T07:47:35.761Z,10.57
2018-07-30T07:51:40.104Z,9.17
2018-07-30T07:55:44.397Z,8.60
2018-07-30T07:59:48.625Z,9.10
2018-07-30T08:03:52.941Z,8.50
2018-07-30T08:07:57.270Z,8.50
2018-07-30T08:12:01.621Z,7.97
2018-07-30T08:16:06.257Z,8.30
2018-07-30T08:20:10.625Z,8.43
2018-07-30T08:24:15.100Z,7.93
2018-07-30T08:28:19.325Z,7.53
2018-07-30T08:32:23.589Z,7.63
2018-07-30T08:36:28.407Z,8.20
2018-07-30T08:40:32.794Z,8.17
2018-07-30T08:44:37.210Z,7.40
2018-07-30T08:48:41.452Z,7.97
2018-07-30T08:52:45.719Z,8.30
2018-07-30T08:56:50.094Z,9.30
2018-07-30T09:00:54.375Z,8.50
2018-07-30T09:04:58.756Z,7.90
2018-07-30T09:09:03.021Z,8.17
2018-07-30T09:13:07.751Z,8.33
2018-07-30T09:17:11.978Z,7.90
2018-07-30T09:21:16.213Z,8.47
2018-07-30T09:25:20.574Z,8.47
2018-07-30T09:29:24.815Z,8.10
2018-07-30T09:33:29.213Z,8.13
2018-07-30T09:37:33.522Z,8.30
2018-07-30T09:41:37.895Z,8.97
2018-07-30T09:45:42.195Z,7.50
2018-07-30T09:49:46.454Z,7.87
2018-07-30T09:53:50.922Z,6.57
2018-07-30T09:57:55.237Z,8.17
2018-07-30T10:01:59.588Z,8.23
2018-07-30T10:06:04.076Z,7.50
2018-07-30T10:10:08.470Z,7.50
2018-07-30T10:14:12.745Z,6.97
2018-07-30T10:18:17.029Z,7.60
2018-07-30T10:22:21.507Z,7.40
2018-07-30T10:26:25.813Z,8.30
2018-07-30T10:30:30.241Z,6.90
2018-07-30T10:34:34.565Z,8.00
2018-07-30T10:38:38.855Z,6.90
2018-07-30T10:42:43.126Z,6.60
2018-07-30T10:46:47.474Z,6.57
2018-07-30T10:50:51.732Z,6.50
2018-07-30T10:54:56.503Z,7.93
2018-07-30T10:59:00.867Z,7.43
2018-07-30T11:03:05.130Z,7.30
2018-07-30T11:07:09.445Z,7.33
2018-07-30T11:11:13.742Z,7.37
2018-07-30T11:15:17.982Z,8.20
2018-07-30T11:19:22.381Z,8.60
2018-07-30T11:23:26.637Z,7.50
2018-07-30T11:27:30.995Z,7.60
2018-07-30T11:31:35.236Z,8.20
2018-07-30T11:35:39.524Z,7.97
2018-07-30T11:39:43.994Z,7.63
2018-07-30T11:43:48.226Z,7.37
2018-07-30T11:47:52.534Z,6.93
2018-07-30T11:51:56.863Z,6.97
2018-07-30T11:56:01.128Z,6.73
2018-07-30T12:00:05.486Z,8.03
2018-07-30T12:04:09.774Z,7.40
2018-07-30T12:08:14.108Z,6.40
2018-07-30T12:12:18.516Z,6.80
2018-07-30T12:16:22.872Z,6.70
2018-07-30T12:20:27.159Z,7.77
2018-07-30T12:24:31.496Z,7.40
2018-07-30T12:28:35.687Z,7.60
2018-07-30T12:32:39.934Z,8.40
2018-07-30T12:36:44.243Z,7.63
2018-07-30T12:40:48.467Z,7.37
2018-07-30T12:44:52.695Z,7.67
2018-07-30T12:48:57.048Z,7.93
2018-07-30T12:53:01.232Z,8.43
2018-07-30T12:57:05.592Z,7.17
2018-07-30T13:01:09.819Z,7.97
2018-07-30T13:05:14.089Z,8.00
2018-07-30T13:09:18.375Z,8.13
2018-07-30T13:13:22.698Z,12.07
2018-07-30T13:17:26.948Z,9.77
2018-07-30T13:21:31.164Z,8.47
2018-07-30T13:25:35.720Z,6.70
2018-07-30T13:29:40.017Z,7.30
2018-07-30T13:33:44.317Z,7.93
2018-07-30T13:37:48.554Z,7.00
2018-07-30T13:41:52.740Z,7.10
2018-07-30T13:45:57.160Z,6.63
2018-07-30T13:50:01.375Z,6.75
2018-07-30T13:54:05.695Z,6.87
2018-07-30T13:58:10.045Z,7.47
2018-07-30T14:02:14.307Z,7.50
2018-07-30T14:06:18.806Z,7.53
2018-07-30T14:10:22.966Z,7.00
2018-07-30T14:14:27.502Z,7.17
2018-07-30T14:18:31.796Z,7.70
2018-07-30T14:22:36.038Z,6.73
2018-07-30T14:26:40.454Z,8.93
2018-07-30T14:30:44.749Z,9.10
2018-07-30T14:34:49.178Z,11.00
2018-07-30T14:38:54.582Z,11.67
2018-07-30T14:42:58.866Z,12.50
2018-07-30T14:47:03.261Z,11.30
2018-07-30T14:51:07.578Z,14.63
2018-07-30T14:55:11.861Z,12.73
2018-07-30T14:59:16.663Z,12.83
2018-07-30T15:03:21.596Z,13.83
2018-07-30T15:07:26.301Z,14.67
2018-07-30T15:11:30.721Z,13.83
2018-07-30T15:15:35.029Z,14.80
2018-07-30T15:19:39.284Z,15.13
2018-07-30T15:23:43.757Z,12.27
2018-07-30T15:27:48.029Z,10.80
2018-07-30T15:31:52.447Z,10.07
2018-07-30T15:35:56.678Z,9.77
2018-07-30T15:40:01.055Z,10.97
2018-07-30T15:44:05.446Z,10.83
2018-07-30T15:48:10.537Z,10.47
2018-07-30T15:52:15.029Z,11.93
2018-07-30T15:56:19.276Z,11.63
2018-07-30T16:00:23.599Z,10.87
2018-07-30T16:04:28.005Z,12.50
2018-07-30T16:08:32.288Z,12.23
2018-07-30T16:12:36.568Z,10.57
2018-07-30T16:16:40.875Z,9.53
2018-07-30T16:20:45.121Z,9.23
2018-07-30T16:24:49.470Z,10.17
2018-07-30T16:28:53.709Z,10.90
2018-07-30T16:32:57.989Z,10.40
2018-07-30T16:37:02.310Z,10.57
2018-07-30T16:41:06.881Z,12.47
2018-07-30T16:45:11.309Z,17.67
2018-07-30T16:49:16.605Z,13.40
2018-07-30T16:53:21.042Z,10.63
2018-07-30T16:57:25.308Z,13.67
2018-07-30T17:01:29.632Z,12.90
2018-07-30T17:05:33.954Z,10.57
2018-07-30T17:09:38.298Z,13.07
2018-07-30T17:13:42.612Z,12.50
2018-07-30T17:17:46.950Z,12.00
2018-07-30T17:21:51.248Z,11.67
2018-07-30T17:25:55.561Z,10.70
2018-07-30T17:30:00.005Z,9.77
2018-07-30T17:34:04.775Z,10.50
2018-07-30T17:38:09.430Z,11.10
2018-07-30T17:42:13.747Z,10.83
2018-07-30T17:46:18.275Z,11.50
2018-07-30T17:50:22.780Z,11.07
2018-07-30T17:54:27.327Z,10.80
2018-07-30T17:58:31.790Z,12.27
2018-07-30T18:02:36.272Z,11.73
2018-07-30T18:06:40.628Z,12.43
2018-07-30T18:10:45.328Z,10.40
2018-07-30T18:14:49.926Z,11.70
2018-07-30T18:18:54.171Z,10.50
2018-07-30T18:22:58.657Z,11.43
2018-07-30T18:27:03.082Z,11.77
2018-07-30T18:31:07.693Z,11.20
2018-07-30T18:35:12.013Z,11.93
2018-07-30T18:39:16.356Z,13.00
2018-07-30T18:43:20.609Z,12.80
2018-07-30T18:47:24.855Z,13.07
2018-07-30T18:51:29.245Z,13.30
2018-07-30T18:55:33.520Z,13.20
2018-07-30T18:59:37.775Z,14.23
2018-07-30T19:03:42.043Z,14.77
2018-07-30T19:07:46.386Z,14.10
2018-07-30T19:11:50.776Z,12.90
2018-07-30T19:15:56.324Z,15.20
2018-07-30T19:20:01.001Z,13.97
2018-07-30T19:24:05.421Z,14.40
2018-07-30T19:28:09.729Z,13.90
2018-07-30T19:32:14.353Z,14.70
2018-07-30T19:36:18.951Z,14.90
2018-07-30T19:40:24.094Z,14.17
2018-07-30T19:44:28.415Z,13.73
2018-07-30T19:48:33.645Z,13.63
2018-07-30T19:52:38.548Z,47.57
2018-07-30T19:56:43.405Z,88.47
2018-07-30T20:00:48.629Z,50.93
2018-07-30T20:04:53.172Z,178.10
2018-07-30T20:08:57.868Z,274.57
2018-07-30T20:13:02.251Z,301.37
2018-07-30T20:17:07.218Z,329.03
2018-07-30T20:21:11.538Z,299.73
2018-07-30T20:25:16.132Z,291.53
2018-07-30T20:29:20.773Z,325.07
2018-07-30T20:33:25.444Z,434.97
2018-07-30T20:37:30.720Z,87.03
2018-07-30T20:41:35.073Z,117.20
2018-07-30T20:45:39.480Z,114.30
2018-07-30T20:49:43.769Z,128.47
2018-07-30T20:53:48.076Z,134.63
2018-07-30T20:57:52.436Z,124.20
2018-07-30T21:01:56.662Z,318.33
2018-07-30T21:06:00.959Z,291.60
2018-07-30T21:10:05.411Z,260.83
2018-07-30T21:14:09.592Z,290.07
2018-07-30T21:18:13.871Z,257.33
2018-07-30T21:22:18.182Z,102.23
2018-07-30T21:26:22.604Z,106.20
2018-07-30T21:30:26.815Z,91.83
2018-07-30T21:34:31.246Z,69.43
2018-07-30T21:38:35.452Z,57.23
2018-07-30T21:42:39.664Z,58.70
2018-07-30T21:46:44.152Z,72.53
2018-07-30T21:50:48.397Z,57.53
2018-07-30T21:54:52.814Z,73.37
2018-07-30T21:58:57.066Z,63.03
2018-07-30T22:03:01.296Z,61.37
2018-07-30T22:07:05.725Z,111.53
2018-07-30T22:11:09.964Z,92.90
2018-07-30T22:15:14.180Z,121.63
2018-07-30T22:19:18.460Z,118.40
2018-07-30T22:23:22.680Z,133.47
2018-07-30T22:27:26.990Z,130.60
2018-07-30T22:31:31.245Z,129.07
2018-07-30T22:35:35.469Z,122.37
2018-07-30T22:39:39.750Z,256.03
2018-07-30T22:43:44.056Z,280.73
2018-07-30T22:47:48.357Z,235.70
2018-07-30T22:51:52.623Z,221.87
2018-07-30T22:55:57.018Z,217.33
2018-07-30T23:00:01.291Z,247.63
2018-07-30T23:04:05.601Z,246.17
2018-07-30T23:08:09.901Z,324.83
2018-07-30T23:12:14.121Z,276.53
2018-07-30T23:16:18.456Z,215.10
2018-07-30T23:20:22.666Z,281.93
2018-07-30T23:24:26.978Z,316.90
2018-07-30T23:28:31.348Z,321.40
2018-07-30T23:32:35.656Z,305.80
2018-07-30T23:36:40.055Z,320.13
2018-07-30T23:40:44.328Z,262.00
2018-07-30T23:44:48.582Z,212.63
2018-07-30T23:48:52.905Z,262.83
2018-07-30T23:52:57.179Z,291.23
2018-07-30T23:57:01.398Z,199.73
